sensor_id;sensor_type;location;lat;lon;timestamp;pressure;altitude;pressure_sealevel;temperature;humidity
49194;BME280;35029;50.804;12.866;2022-09-27T00:00:20;95913.16;;;11.73;72.20
49194;BME280;35029;50.804;12.866;2022-09-27T00:02:46;95927.31;;;11.79;72.10
49194;BME280;35029;50.804;12.866;2022-09-27T00:05:12;95916.69;;;11.79;72.80
49194;BME280;35029;50.804;12.866;2022-09-27T00:07:38;95910.59;;;11.78;73.32
49194;BME280;35029;50.804;12.866;2022-09-27T00:10:06;95905.53;;;11.77;73.40
49194;BME280;35029;50.804;12.866;2022-09-27T00:12:33;95908.72;;;11.79;73.10
49194;BME280;35029;50.804;12.866;2022-09-27T00:14:59;95886.31;;;11.70;72.96
49194;BME280;35029;50.804;12.866;2022-09-27T00:17:27;95903.41;;;11.79;72.86
49194;BME280;35029;50.804;12.866;2022-09-27T00:19:53;95888.25;;;11.74;72.87
49194;BME280;35029;50.804;12.866;2022-09-27T00:22:21;95888.50;;;11.73;73.09
49194;BME280;35029;50.804;12.866;2022-09-27T00:24:50;95895.63;;;11.72;72.42
49194;BME280;35029;50.804;12.866;2022-09-27T00:27:16;95892.69;;;11.69;72.68
49194;BME280;35029;50.804;12.866;2022-09-27T00:29:43;95894.28;;;11.70;72.93
49194;BME280;35029;50.804;12.866;2022-09-27T00:32:10;95891.06;;;11.67;72.98
49194;BME280;35029;50.804;12.866;2022-09-27T00:34:36;95882.09;;;11.74;72.52
49194;BME280;35029;50.804;12.866;2022-09-27T00:37:01;95883.63;;;11.64;72.51
49194;BME280;35029;50.804;12.866;2022-09-27T00:39:28;95871.47;;;11.69;72.86
49194;BME280;35029;50.804;12.866;2022-09-27T00:41:53;95869.84;;;11.67;73.00
49194;BME280;35029;50.804;12.866;2022-09-27T00:49:25;95833.38;;;11.58;72.91
49194;BME280;35029;50.804;12.866;2022-09-27T00:52:10;95846.22;;;11.66;73.11
49194;BME280;35029;50.804;12.866;2022-09-27T00:54:43;95851.00;;;11.69;73.33
49194;BME280;35029;50.804;12.866;2022-09-27T00:57:10;95847.56;;;11.69;72.82
49194;BME280;35029;50.804;12.866;2022-09-27T00:59:44;95838.00;;;11.67;72.74
49194;BME280;35029;50.804;12.866;2022-09-27T01:02:11;95825.53;;;11.68;72.80
49194;BME280;35029;50.804;12.866;2022-09-27T01:04:38;95826.03;;;11.65;73.43
49194;BME280;35029;50.804;12.866;2022-09-27T01:07:05;95822.25;;;11.61;73.55
49194;BME280;35029;50.804;12.866;2022-09-27T01:09:33;95815.66;;;11.63;73.45
49194;BME280;35029;50.804;12.866;2022-09-27T01:12:19;95807.91;;;11.57;74.08
49194;BME280;35029;50.804;12.866;2022-09-27T01:21:00;95812.41;;;11.56;73.70
49194;BME280;35029;50.804;12.866;2022-09-27T01:29:10;95802.03;;;11.55;74.84
49194;BME280;35029;50.804;12.866;2022-09-27T01:32:04;95798.03;;;11.52;74.38
49194;BME280;35029;50.804;12.866;2022-09-27T01:37:10;95776.31;;;11.55;74.46
49194;BME280;35029;50.804;12.866;2022-09-27T01:40:10;95770.50;;;11.58;74.65
49194;BME280;35029;50.804;12.866;2022-09-27T01:43:22;95774.50;;;11.61;73.41
49194;BME280;35029;50.804;12.866;2022-09-27T01:45:56;95774.31;;;11.67;73.52
49194;BME280;35029;50.804;12.866;2022-09-27T01:48:49;95752.69;;;11.54;73.54
49194;BME280;35029;50.804;12.866;2022-09-27T01:51:29;95761.22;;;11.61;73.26
49194;BME280;35029;50.804;12.866;2022-09-27T01:54:01;95760.13;;;11.57;74.20
49194;BME280;35029;50.804;12.866;2022-09-27T01:56:54;95759.81;;;11.53;74.21
49194;BME280;35029;50.804;12.866;2022-09-27T01:59:30;95740.75;;;11.56;73.57
49194;BME280;35029;50.804;12.866;2022-09-27T02:02:25;95740.50;;;11.58;73.63
49194;BME280;35029;50.804;12.866;2022-09-27T02:05:29;95742.34;;;11.57;73.86
49194;BME280;35029;50.804;12.866;2022-09-27T02:08:06;95734.09;;;11.54;73.43
49194;BME280;35029;50.804;12.866;2022-09-27T02:10:38;95735.94;;;11.53;74.51
49194;BME280;35029;50.804;12.866;2022-09-27T02:13:20;95732.00;;;11.56;74.22
49194;BME280;35029;50.804;12.866;2022-09-27T02:21:38;95738.13;;;11.56;74.80
49194;BME280;35029;50.804;12.866;2022-09-27T02:24:08;95729.06;;;11.57;74.83
49194;BME280;35029;50.804;12.866;2022-09-27T02:26:42;95723.25;;;11.55;74.85
49194;BME280;35029;50.804;12.866;2022-09-27T02:29:13;95724.84;;;11.56;75.29
49194;BME280;35029;50.804;12.866;2022-09-27T02:31:48;95723.53;;;11.59;75.96
49194;BME280;35029;50.804;12.866;2022-09-27T02:34:21;95721.97;;;11.63;75.17
49194;BME280;35029;50.804;12.866;2022-09-27T02:36:48;95703.81;;;11.49;75.35
49194;BME280;35029;50.804;12.866;2022-09-27T02:39:16;95713.16;;;11.57;76.28
49194;BME280;35029;50.804;12.866;2022-09-27T02:41:42;95714.72;;;11.53;77.30
49194;BME280;35029;50.804;12.866;2022-09-27T02:44:09;95710.22;;;11.54;77.09
49194;BME280;35029;50.804;12.866;2022-09-27T02:49:35;95707.47;;;11.43;77.29
49194;BME280;35029;50.804;12.866;2022-09-27T02:52:43;95710.69;;;11.45;78.02
49194;BME280;35029;50.804;12.866;2022-09-27T02:58:16;95701.38;;;11.43;78.12
49194;BME280;35029;50.804;12.866;2022-09-27T03:06:46;95698.72;;;11.43;78.12
49194;BME280;35029;50.804;12.866;2022-09-27T03:09:20;95694.44;;;11.42;79.14
49194;BME280;35029;50.804;12.866;2022-09-27T03:11:46;95694.97;;;11.39;79.77
49194;BME280;35029;50.804;12.866;2022-09-27T03:14:13;95696.78;;;11.38;80.45
49194;BME280;35029;50.804;12.866;2022-09-27T03:16:48;95691.94;;;11.30;80.76
49194;BME280;35029;50.804;12.866;2022-09-27T03:19:43;95690.06;;;11.25;81.62
49194;BME280;35029;50.804;12.866;2022-09-27T03:22:27;95692.97;;;11.24;80.48
49194;BME280;35029;50.804;12.866;2022-09-27T03:24:52;95687.91;;;11.22;82.20
49194;BME280;35029;50.804;12.866;2022-09-27T03:27:18;95688.13;;;11.21;83.43
49194;BME280;35029;50.804;12.866;2022-09-27T03:29:43;95688.09;;;11.15;84.97
49194;BME280;35029;50.804;12.866;2022-09-27T03:32:09;95683.28;;;11.12;85.86
49194;BME280;35029;50.804;12.866;2022-09-27T03:34:53;95688.53;;;11.07;86.09
49194;BME280;35029;50.804;12.866;2022-09-27T03:37:20;95683.25;;;11.07;86.33
49194;BME280;35029;50.804;12.866;2022-09-27T03:39:46;95675.72;;;10.99;86.60
49194;BME280;35029;50.804;12.866;2022-09-27T03:42:13;95680.53;;;11.02;86.67
49194;BME280;35029;50.804;12.866;2022-09-27T03:44:44;95689.28;;;11.03;87.24
49194;BME280;35029;50.804;12.866;2022-09-27T03:47:10;95621.22;;;10.59;87.49
49194;BME280;35029;50.804;12.866;2022-09-27T03:49:37;95665.50;;;10.86;88.04
49194;BME280;35029;50.804;12.866;2022-09-27T03:52:04;95674.31;;;10.91;88.17
49194;BME280;35029;50.804;12.866;2022-09-27T03:54:30;95659.38;;;10.85;88.79
49194;BME280;35029;50.804;12.866;2022-09-27T03:56:56;95669.81;;;10.92;88.98
49194;BME280;35029;50.804;12.866;2022-09-27T03:59:22;95646.56;;;10.77;89.78
49194;BME280;35029;50.804;12.866;2022-09-27T04:02:08;95662.59;;;10.87;90.62
49194;BME280;35029;50.804;12.866;2022-09-27T04:04:56;95669.19;;;10.85;91.37
49194;BME280;35029;50.804;12.866;2022-09-27T04:07:22;95661.34;;;10.68;92.42
49194;BME280;35029;50.804;12.866;2022-09-27T04:09:48;95656.47;;;10.59;92.90
49194;BME280;35029;50.804;12.866;2022-09-27T04:12:14;95660.44;;;10.62;93.32
49194;BME280;35029;50.804;12.866;2022-09-27T04:14:40;95661.81;;;10.64;94.34
49194;BME280;35029;50.804;12.866;2022-09-27T04:17:28;95658.03;;;10.60;96.04
49194;BME280;35029;50.804;12.866;2022-09-27T04:20:20;95653.56;;;10.61;97.08
49194;BME280;35029;50.804;12.866;2022-09-27T04:22:45;95653.56;;;10.61;96.91
49194;BME280;35029;50.804;12.866;2022-09-27T04:25:11;95652.75;;;10.60;97.68
49194;BME280;35029;50.804;12.866;2022-09-27T04:27:42;95649.06;;;10.61;98.73
49194;BME280;35029;50.804;12.866;2022-09-27T04:30:09;95651.72;;;10.61;98.76
49194;BME280;35029;50.804;12.866;2022-09-27T04:32:54;95648.25;;;10.61;98.78
49194;BME280;35029;50.804;12.866;2022-09-27T04:35:42;95648.56;;;10.64;99.12
49194;BME280;35029;50.804;12.866;2022-09-27T04:38:27;95633.41;;;10.60;99.93
49194;BME280;35029;50.804;12.866;2022-09-27T04:40:52;95640.59;;;10.64;99.89
49194;BME280;35029;50.804;12.866;2022-09-27T04:43:18;95642.41;;;10.59;100.00
49194;BME280;35029;50.804;12.866;2022-09-27T04:45:44;95641.53;;;10.53;100.00
49194;BME280;35029;50.804;12.866;2022-09-27T04:48:10;95639.56;;;10.43;100.00
49194;BME280;35029;50.804;12.866;2022-09-27T04:50:37;95635.94;;;10.49;100.00
49194;BME280;35029;50.804;12.866;2022-09-27T04:53:04;95639.06;;;10.46;100.00
49194;BME280;35029;50.804;12.866;2022-09-27T04:55:30;95639.88;;;10.47;100.00
49194;BME280;35029;50.804;12.866;2022-09-27T04:57:56;95646.47;;;10.44;100.00
49194;BME280;35029;50.804;12.866;2022-09-27T05:00:22;95647.53;;;10.43;100.00
49194;BME280;35029;50.804;12.866;2022-09-27T05:02:53;95655.72;;;10.42;100.00
49194;BME280;35029;50.804;12.866;2022-09-27T05:05:33;95644.88;;;10.43;100.00
49194;BME280;35029;50.804;12.866;2022-09-27T05:07:59;95653.09;;;10.47;100.00
49194;BME280;35029;50.804;12.866;2022-09-27T05:10:45;95650.41;;;10.42;100.00
49194;BME280;35029;50.804;12.866;2022-09-27T05:13:10;95653.09;;;10.47;100.00
49194;BME280;35029;50.804;12.866;2022-09-27T05:15:36;95651.47;;;10.41;100.00
49194;BME280;35029;50.804;12.866;2022-09-27T05:18:31;95634.59;;;10.30;100.00
49194;BME280;35029;50.804;12.866;2022-09-27T05:21:20;95642.75;;;10.45;100.00
49194;BME280;35029;50.804;12.866;2022-09-27T05:23:46;95652.56;;;10.45;100.00
49194;BME280;35029;50.804;12.866;2022-09-27T05:26:11;95646.69;;;10.43;100.00
49194;BME280;35029;50.804;12.866;2022-09-27T05:28:37;95648.00;;;10.40;100.00
49194;BME280;35029;50.804;12.866;2022-09-27T05:31:03;95641.91;;;10.40;100.00
49194;BME280;35029;50.804;12.866;2022-09-27T05:33:28;95640.06;;;10.40;100.00
49194;BME280;35029;50.804;12.866;2022-09-27T05:36:12;95633.94;;;10.40;100.00
49194;BME280;35029;50.804;12.866;2022-09-27T05:38:41;95640.28;;;10.39;100.00
49194;BME280;35029;50.804;12.866;2022-09-27T05:41:06;95634.91;;;10.34;100.00
49194;BME280;35029;50.804;12.866;2022-09-27T05:43:34;95633.81;;;10.29;100.00
49194;BME280;35029;50.804;12.866;2022-09-27T05:46:00;95618.09;;;10.23;100.00
49194;BME280;35029;50.804;12.866;2022-09-27T05:48:26;95631.94;;;10.30;100.00
49194;BME280;35029;50.804;12.866;2022-09-27T05:50:59;95629.84;;;10.32;100.00
49194;BME280;35029;50.804;12.866;2022-09-27T05:53:25;95623.41;;;10.23;100.00
49194;BME280;35029;50.804;12.866;2022-09-27T05:55:51;95633.41;;;10.38;100.00
49194;BME280;35029;50.804;12.866;2022-09-27T05:58:20;95635.81;;;10.39;100.00
49194;BME280;35029;50.804;12.866;2022-09-27T06:01:05;95634.53;;;10.42;100.00
49194;BME280;35029;50.804;12.866;2022-09-27T06:03:54;95627.44;;;10.30;100.00
49194;BME280;35029;50.804;12.866;2022-09-27T06:06:43;95638.53;;;10.44;100.00
49194;BME280;35029;50.804;12.866;2022-09-27T06:09:10;95637.09;;;10.37;100.00
49194;BME280;35029;50.804;12.866;2022-09-27T06:11:35;95638.81;;;10.48;100.00
49194;BME280;35029;50.804;12.866;2022-09-27T06:14:01;95618.56;;;10.37;100.00
49194;BME280;35029;50.804;12.866;2022-09-27T06:16:30;95629.28;;;10.47;100.00
49194;BME280;35029;50.804;12.866;2022-09-27T06:18:56;95635.94;;;10.49;100.00
49194;BME280;35029;50.804;12.866;2022-09-27T06:21:22;95615.13;;;10.36;100.00
49194;BME280;35029;50.804;12.866;2022-09-27T06:23:54;95611.00;;;10.28;100.00
49194;BME280;35029;50.804;12.866;2022-09-27T06:26:27;95624.72;;;10.42;100.00
49194;BME280;35029;50.804;12.866;2022-09-27T06:29:12;95630.34;;;10.46;100.00
49194;BME280;35029;50.804;12.866;2022-09-27T06:31:44;95634.09;;;10.50;100.00
49194;BME280;35029;50.804;12.866;2022-09-27T06:34:22;95636.38;;;10.63;100.00
49194;BME280;35029;50.804;12.866;2022-09-27T06:36:49;95631.44;;;10.72;99.77
49194;BME280;35029;50.804;12.866;2022-09-27T06:39:15;95634.06;;;10.72;99.67
49194;BME280;35029;50.804;12.866;2022-09-27T06:41:59;95615.19;;;10.63;100.00
49194;BME280;35029;50.804;12.866;2022-09-27T06:44:43;95633.03;;;10.73;99.51
49194;BME280;35029;50.804;12.866;2022-09-27T06:47:34;95647.59;;;10.71;99.16
49194;BME280;35029;50.804;12.866;2022-09-27T06:50:20;95636.66;;;10.67;99.47
49194;BME280;35029;50.804;12.866;2022-09-27T06:52:49;95639.31;;;10.67;99.71
49194;BME280;35029;50.804;12.866;2022-09-27T06:55:15;95632.13;;;10.62;99.13
49194;BME280;35029;50.804;12.866;2022-09-27T06:57:41;95642.53;;;10.69;99.35
49194;BME280;35029;50.804;12.866;2022-09-27T07:00:26;95648.09;;;10.68;99.24
49194;BME280;35029;50.804;12.866;2022-09-27T07:03:10;95645.66;;;10.66;98.83
49194;BME280;35029;50.804;12.866;2022-09-27T07:06:02;95648.56;;;10.64;99.08
49194;BME280;35029;50.804;12.866;2022-09-27T07:08:42;95656.50;;;10.64;98.89
49194;BME280;35029;50.804;12.866;2022-09-27T07:11:08;95642.97;;;10.61;98.68
49194;BME280;35029;50.804;12.866;2022-09-27T07:13:34;95665.28;;;10.65;97.47
49194;BME280;35029;50.804;12.866;2022-09-27T07:16:05;95665.03;;;10.67;97.47
49194;BME280;35029;50.804;12.866;2022-09-27T07:18:31;95663.28;;;10.77;98.87
49194;BME280;35029;50.804;12.866;2022-09-27T07:20:58;95664.41;;;10.81;98.05
49194;BME280;35029;50.804;12.866;2022-09-27T07:23:24;95669.88;;;10.75;96.22
49194;BME280;35029;50.804;12.866;2022-09-27T07:25:52;95664.41;;;10.81;95.22
49194;BME280;35029;50.804;12.866;2022-09-27T07:28:18;95673.88;;;10.99;95.47
49194;BME280;35029;50.804;12.866;2022-09-27T07:30:46;95672.44;;;11.14;94.81
49194;BME280;35029;50.804;12.866;2022-09-27T07:33:12;95680.22;;;10.98;93.12
49194;BME280;35029;50.804;12.866;2022-09-27T07:35:41;95683.78;;;11.09;94.19
49194;BME280;35029;50.804;12.866;2022-09-27T07:38:10;95677.38;;;11.05;93.17
49194;BME280;35029;50.804;12.866;2022-09-27T07:40:37;95690.50;;;11.17;92.26
49194;BME280;35029;50.804;12.866;2022-09-27T07:43:03;95686.25;;;11.16;93.23
49194;BME280;35029;50.804;12.866;2022-09-27T07:45:30;95692.66;;;11.20;92.08
49194;BME280;35029;50.804;12.866;2022-09-27T07:48:20;95684.59;;;11.37;93.74
49194;BME280;35029;50.804;12.866;2022-09-27T07:50:57;95688.34;;;11.41;93.95
49194;BME280;35029;50.804;12.866;2022-09-27T07:53:50;95680.22;;;11.26;91.65
49194;BME280;35029;50.804;12.866;2022-09-27T07:56:44;95672.78;;;11.23;91.99
49194;BME280;35029;50.804;12.866;2022-09-27T07:59:12;95693.81;;;11.29;93.84
49194;BME280;35029;50.804;12.866;2022-09-27T08:01:38;95699.06;;;11.24;93.19
49194;BME280;35029;50.804;12.866;2022-09-27T08:04:03;95708.41;;;11.05;93.35
49194;BME280;35029;50.804;12.866;2022-09-27T08:06:30;95702.66;;;11.13;93.97
49194;BME280;35029;50.804;12.866;2022-09-27T08:08:56;95701.16;;;11.22;94.51
49194;BME280;35029;50.804;12.866;2022-09-27T08:11:27;95689.84;;;11.32;94.13
49194;BME280;35029;50.804;12.866;2022-09-27T08:13:53;95706.16;;;11.46;93.75
49194;BME280;35029;50.804;12.866;2022-09-27T08:16:23;95698.97;;;11.41;93.67
49194;BME280;35029;50.804;12.866;2022-09-27T08:19:08;95708.56;;;11.47;93.72
49194;BME280;35029;50.804;12.866;2022-09-27T08:21:56;95699.56;;;11.48;93.82
49194;BME280;35029;50.804;12.866;2022-09-27T08:24:25;95689.44;;;11.18;88.12
49194;BME280;35029;50.804;12.866;2022-09-27T08:27:04;95709.78;;;11.12;87.04
49194;BME280;35029;50.804;12.866;2022-09-27T08:29:45;95702.25;;;10.99;89.84
49194;BME280;35029;50.804;12.866;2022-09-27T08:32:15;95705.13;;;10.97;91.01
49194;BME280;35029;50.804;12.866;2022-09-27T08:34:40;95713.25;;;11.13;90.10
49194;BME280;35029;50.804;12.866;2022-09-27T08:37:06;95712.31;;;11.24;91.25
49194;BME280;35029;50.804;12.866;2022-09-27T08:39:32;95708.38;;;11.27;89.20
49194;BME280;35029;50.804;12.866;2022-09-27T08:47:29;95703.56;;;11.51;89.48
49194;BME280;35029;50.804;12.866;2022-09-27T08:53:12;95723.09;;;11.67;88.19
49194;BME280;35029;50.804;12.866;2022-09-27T08:55:56;95732.81;;;11.56;86.64
49194;BME280;35029;50.804;12.866;2022-09-27T08:58:40;95727.19;;;11.25;85.80
49194;BME280;35029;50.804;12.866;2022-09-27T09:01:17;95727.31;;;11.41;87.88
49194;BME280;35029;50.804;12.866;2022-09-27T09:04:02;95734.50;;;11.67;88.89
49194;BME280;35029;50.804;12.866;2022-09-27T09:15:05;95747.13;;;11.55;88.48
49194;BME280;35029;50.804;12.866;2022-09-27T09:18:00;95752.47;;;11.33;89.24
49194;BME280;35029;50.804;12.866;2022-09-27T09:21:05;95754.69;;;11.19;90.74
49194;BME280;35029;50.804;12.866;2022-09-27T09:26:31;95768.13;;;11.35;92.89
49194;BME280;35029;50.804;12.866;2022-09-27T09:34:49;95788.56;;;11.61;94.08
49194;BME280;35029;50.804;12.866;2022-09-27T09:37:44;95776.97;;;11.67;90.97
49194;BME280;35029;50.804;12.866;2022-09-27T09:40:34;95781.63;;;11.55;92.41
49194;BME280;35029;50.804;12.866;2022-09-27T09:46:01;95785.44;;;11.42;90.50
49194;BME280;35029;50.804;12.866;2022-09-27T09:48:33;95793.91;;;11.39;90.19
49194;BME280;35029;50.804;12.866;2022-09-27T09:51:04;95788.19;;;11.25;88.78
49194;BME280;35029;50.804;12.866;2022-09-27T09:56:07;95787.13;;;11.04;93.14
49194;BME280;35029;50.804;12.866;2022-09-27T10:01:20;95794.63;;;11.12;89.95
49194;BME280;35029;50.804;12.866;2022-09-27T10:03:47;95805.25;;;11.12;90.79
49194;BME280;35029;50.804;12.866;2022-09-27T10:06:15;95805.63;;;11.21;92.70
49194;BME280;35029;50.804;12.866;2022-09-27T10:08:41;95806.31;;;11.11;89.03
49194;BME280;35029;50.804;12.866;2022-09-27T10:11:31;95810.78;;;10.89;91.15
49194;BME280;35029;50.804;12.866;2022-09-27T10:14:15;95800.34;;;10.82;92.85
49194;BME280;35029;50.804;12.866;2022-09-27T10:16:46;95808.53;;;10.58;92.92
49194;BME280;35029;50.804;12.866;2022-09-27T10:19:22;95817.50;;;10.57;93.91
49194;BME280;35029;50.804;12.866;2022-09-27T10:21:51;95813.66;;;10.48;95.03
49194;BME280;35029;50.804;12.866;2022-09-27T10:24:18;95819.13;;;10.58;95.27
49194;BME280;35029;50.804;12.866;2022-09-27T10:27:05;95821.19;;;10.56;92.52
49194;BME280;35029;50.804;12.866;2022-09-27T10:29:36;95822.38;;;10.82;93.00
49194;BME280;35029;50.804;12.866;2022-09-27T10:32:18;95813.94;;;11.08;90.81
49194;BME280;35029;50.804;12.866;2022-09-27T10:34:45;95809.75;;;11.34;92.49
49194;BME280;35029;50.804;12.866;2022-09-27T10:39:50;95814.13;;;11.67;90.35
49194;BME280;35029;50.804;12.866;2022-09-27T10:42:36;95811.31;;;11.52;89.15
49194;BME280;35029;50.804;12.866;2022-09-27T10:45:24;95824.91;;;11.61;90.51
49194;BME280;35029;50.804;12.866;2022-09-27T10:48:18;95814.81;;;11.36;89.78
49194;BME280;35029;50.804;12.866;2022-09-27T10:51:00;95821.63;;;11.26;90.77
49194;BME280;35029;50.804;12.866;2022-09-27T10:53:35;95821.13;;;10.90;90.03
49194;BME280;35029;50.804;12.866;2022-09-27T10:56:36;95815.44;;;10.59;92.88
49194;BME280;35029;50.804;12.866;2022-09-27T10:59:03;95824.63;;;10.74;94.49
49194;BME280;35029;50.804;12.866;2022-09-27T11:01:43;95843.19;;;10.74;94.64
49194;BME280;35029;50.804;12.866;2022-09-27T11:04:35;95841.09;;;10.59;93.67
49194;BME280;35029;50.804;12.866;2022-09-27T11:07:17;95837.16;;;10.61;94.34
49194;BME280;35029;50.804;12.866;2022-09-27T11:09:53;95832.59;;;10.40;93.19
49194;BME280;35029;50.804;12.866;2022-09-27T11:12:21;95852.50;;;10.42;93.56
49194;BME280;35029;50.804;12.866;2022-09-27T11:14:55;95858.56;;;10.26;93.62
49194;BME280;35029;50.804;12.866;2022-09-27T11:19:57;95860.47;;;10.13;93.91
49194;BME280;35029;50.804;12.866;2022-09-27T11:22:44;95856.41;;;10.23;95.90
49194;BME280;35029;50.804;12.866;2022-09-27T11:36:41;95857.09;;;10.64;93.99
49194;BME280;35029;50.804;12.866;2022-09-27T11:39:22;95869.75;;;10.45;93.38
49194;BME280;35029;50.804;12.866;2022-09-27T11:53:47;95872.81;;;10.54;93.81
49194;BME280;35029;50.804;12.866;2022-09-27T11:56:39;95871.59;;;10.61;94.41
49194;BME280;35029;50.804;12.866;2022-09-27T12:07:42;95870.72;;;10.56;93.67
49194;BME280;35029;50.804;12.866;2022-09-27T12:10:13;95868.47;;;10.64;93.86
49194;BME280;35029;50.804;12.866;2022-09-27T12:12:44;95876.19;;;10.83;93.69
49194;BME280;35029;50.804;12.866;2022-09-27T12:15:16;95870.97;;;10.88;92.25
49194;BME280;35029;50.804;12.866;2022-09-27T12:17:45;95865.00;;;10.98;92.95
49194;BME280;35029;50.804;12.866;2022-09-27T12:20:29;95869.97;;;11.11;92.03
49194;BME280;35029;50.804;12.866;2022-09-27T12:23:07;95861.53;;;10.97;91.15
49194;BME280;35029;50.804;12.866;2022-09-27T12:25:59;95868.59;;;11.09;93.55
49194;BME280;35029;50.804;12.866;2022-09-27T12:31:33;95869.59;;;11.25;91.64
49194;BME280;35029;50.804;12.866;2022-09-27T12:34:17;95854.97;;;11.66;91.12
49194;BME280;35029;50.804;12.866;2022-09-27T12:39:56;95873.91;;;11.53;86.42
49194;BME280;35029;50.804;12.866;2022-09-27T12:42:31;95870.81;;;11.61;85.73
49194;BME280;35029;50.804;12.866;2022-09-27T12:45:04;95864.09;;;11.76;88.17
49194;BME280;35029;50.804;12.866;2022-09-27T12:52:32;95864.97;;;11.37;88.75
49194;BME280;35029;50.804;12.866;2022-09-27T13:00:37;95866.66;;;11.04;86.87
49194;BME280;35029;50.804;12.866;2022-09-27T13:13:41;95884.53;;;10.75;91.04
49194;BME280;35029;50.804;12.866;2022-09-27T13:16:09;95880.34;;;10.62;88.94
49194;BME280;35029;50.804;12.866;2022-09-27T13:18:56;95886.06;;;10.71;89.23
49194;BME280;35029;50.804;12.866;2022-09-27T13:29:49;95880.22;;;11.69;82.29
49194;BME280;35029;50.804;12.866;2022-09-27T13:32:17;95889.41;;;11.61;81.61
49194;BME280;35029;50.804;12.866;2022-09-27T13:35:11;95886.25;;;11.42;84.08
49194;BME280;35029;50.804;12.866;2022-09-27T13:37:55;95889.16;;;11.41;87.36
49194;BME280;35029;50.804;12.866;2022-09-27T13:40:34;95883.09;;;11.23;87.56
49194;BME280;35029;50.804;12.866;2022-09-27T13:43:46;95883.25;;;11.16;90.82
49194;BME280;35029;50.804;12.866;2022-09-27T13:46:34;95887.25;;;10.97;88.33
49194;BME280;35029;50.804;12.866;2022-09-27T13:49:04;95878.03;;;10.82;87.30
49194;BME280;35029;50.804;12.866;2022-09-27T13:52:32;95874.03;;;10.80;89.27
49194;BME280;35029;50.804;12.866;2022-09-27T14:00:43;95877.88;;;10.38;91.62
49194;BME280;35029;50.804;12.866;2022-09-27T14:05:42;95895.41;;;10.27;87.30
49194;BME280;35029;50.804;12.866;2022-09-27T14:08:30;95896.56;;;10.20;88.30
49194;BME280;35029;50.804;12.866;2022-09-27T14:10:59;95898.44;;;10.19;87.54
49194;BME280;35029;50.804;12.866;2022-09-27T14:13:27;95902.19;;;10.52;86.95
49194;BME280;35029;50.804;12.866;2022-09-27T14:16:03;95907.75;;;10.68;84.74
49194;BME280;35029;50.804;12.866;2022-09-27T14:18:32;95905.63;;;11.04;84.19
49194;BME280;35029;50.804;12.866;2022-09-27T14:21:25;95895.34;;;10.90;82.60
49194;BME280;35029;50.804;12.866;2022-09-27T14:24:29;95905.97;;;10.90;84.53
49194;BME280;35029;50.804;12.866;2022-09-27T14:29:57;95923.88;;;10.49;84.85
49194;BME280;35029;50.804;12.866;2022-09-27T14:32:29;95916.06;;;10.42;86.33
49194;BME280;35029;50.804;12.866;2022-09-27T14:35:20;95932.69;;;10.38;86.70
49194;BME280;35029;50.804;12.866;2022-09-27T14:38:16;95929.34;;;10.30;88.66
49194;BME280;35029;50.804;12.866;2022-09-27T14:40:53;95930.84;;;10.26;89.20
49194;BME280;35029;50.804;12.866;2022-09-27T14:43:20;95918.75;;;10.30;91.41
49194;BME280;35029;50.804;12.866;2022-09-27T14:45:47;95922.13;;;10.26;90.37
49194;BME280;35029;50.804;12.866;2022-09-27T14:48:21;95908.22;;;10.19;89.67
49194;BME280;35029;50.804;12.866;2022-09-27T14:50:59;95921.47;;;10.19;91.16
49194;BME280;35029;50.804;12.866;2022-09-27T14:53:33;95931.72;;;10.15;92.14
49194;BME280;35029;50.804;12.866;2022-09-27T14:56:00;95925.28;;;10.11;91.73
49194;BME280;35029;50.804;12.866;2022-09-27T14:58:26;95930.38;;;10.01;91.15
49194;BME280;35029;50.804;12.866;2022-09-27T15:00:54;95922.53;;;10.06;92.83
49194;BME280;35029;50.804;12.866;2022-09-27T15:03:26;95925.88;;;10.13;93.05
49194;BME280;35029;50.804;12.866;2022-09-27T15:05:54;95925.88;;;10.13;92.76
49194;BME280;35029;50.804;12.866;2022-09-27T15:08:26;95928.44;;;10.08;93.08
49194;BME280;35029;50.804;12.866;2022-09-27T15:10:55;95922.53;;;10.06;92.23
49194;BME280;35029;50.804;12.866;2022-09-27T15:13:22;95928.97;;;10.10;90.17
49194;BME280;35029;50.804;12.866;2022-09-27T15:15:49;95921.16;;;10.03;89.69
49194;BME280;35029;50.804;12.866;2022-09-27T15:18:42;95933.63;;;10.03;87.61
49194;BME280;35029;50.804;12.866;2022-09-27T15:21:14;95933.88;;;10.18;88.20
49194;BME280;35029;50.804;12.866;2022-09-27T15:23:42;95940.63;;;10.38;85.25
49194;BME280;35029;50.804;12.866;2022-09-27T15:28:35;95936.28;;;10.20;86.54
49194;BME280;35029;50.804;12.866;2022-09-27T15:31:04;95959.66;;;10.23;84.95
49194;BME280;35029;50.804;12.866;2022-09-27T15:33:32;95954.50;;;10.16;84.15
49194;BME280;35029;50.804;12.866;2022-09-27T15:36:08;95954.84;;;10.20;85.74
49194;BME280;35029;50.804;12.866;2022-09-27T15:41:09;95941.38;;;10.21;87.64
49194;BME280;35029;50.804;12.866;2022-09-27T15:43:38;95952.56;;;10.11;85.64
49194;BME280;35029;50.804;12.866;2022-09-27T15:46:42;95951.38;;;10.19;86.43
49194;BME280;35029;50.804;12.866;2022-09-27T15:49:18;95956.72;;;10.07;85.89
49194;BME280;35029;50.804;12.866;2022-09-27T15:52:06;95957.09;;;10.40;90.88
49194;BME280;35029;50.804;12.866;2022-09-27T15:54:53;95959.91;;;10.50;87.45
49194;BME280;35029;50.804;12.866;2022-09-27T15:57:19;95962.28;;;10.35;86.48
49194;BME280;35029;50.804;12.866;2022-09-27T15:59:44;95964.84;;;10.29;86.52
49194;BME280;35029;50.804;12.866;2022-09-27T16:02:15;95934.59;;;9.85;84.00
49194;BME280;35029;50.804;12.866;2022-09-27T16:04:41;95977.25;;;10.00;85.13